createdAt,value
2022-09-11T00:00:15.000Z,95
2022-09-11T00:01:41.000Z,95
2022-09-11T00:03:48.000Z,94
2022-09-11T00:05:14.000Z,94
2022-09-11T00:07:20.000Z,94
2022-09-11T00:08:47.000Z,94
2022-09-11T00:10:53.000Z,94
2022-09-11T00:12:19.000Z,94
2022-09-11T00:14:25.000Z,95
2022-09-11T00:17:17.000Z,95
2022-09-11T00:18:43.000Z,95
2022-09-11T00:20:49.000Z,95
2022-09-11T00:22:16.000Z,95
2022-09-11T00:24:22.000Z,95
2022-09-11T00:25:48.000Z,95
2022-09-11T00:27:55.000Z,95
2022-09-11T00:29:21.000Z,95
2022-09-11T00:31:27.000Z,95
2022-09-11T00:32:54.000Z,94
2022-09-11T00:35:00.000Z,94
2022-09-11T00:36:27.000Z,95
2022-09-11T00:38:33.000Z,94
2022-09-11T00:39:59.000Z,95
2022-09-11T00:42:05.000Z,94
2022-09-11T00:43:32.000Z,94
2022-09-11T00:45:38.000Z,94
2022-09-11T00:47:05.000Z,95
2022-09-11T00:49:11.000Z,94
2022-09-11T00:50:37.000Z,95
2022-09-11T00:52:43.000Z,94
2022-09-11T00:55:34.000Z,94
2022-09-11T00:57:01.000Z,94
2022-09-11T00:59:07.000Z,94
2022-09-11T01:00:33.000Z,94
2022-09-11T01:02:40.000Z,94
2022-09-11T01:04:06.000Z,94
2022-09-11T01:06:12.000Z,94
2022-09-11T01:07:39.000Z,94
2022-09-11T01:09:45.000Z,94
2022-09-11T01:11:11.000Z,94
2022-09-11T01:13:18.000Z,94
2022-09-11T01:14:44.000Z,94
2022-09-11T01:16:50.000Z,94
2022-09-11T01:18:17.000Z,94
2022-09-11T01:20:23.000Z,94
2022-09-11T01:21:49.000Z,94
2022-09-11T01:23:55.000Z,94
2022-09-11T01:25:22.000Z,94
2022-09-11T01:27:28.000Z,95
2022-09-11T01:28:55.000Z,94
2022-09-11T01:31:01.000Z,94
2022-09-11T01:33:52.000Z,95
2022-09-11T01:35:18.000Z,94
2022-09-11T01:37:25.000Z,94
2022-09-11T01:38:51.000Z,94
2022-09-11T01:40:57.000Z,94
2022-09-11T01:42:24.000Z,95
2022-09-11T01:44:30.000Z,95
2022-09-11T01:45:56.000Z,94
2022-09-11T01:48:03.000Z,94
2022-09-11T01:49:29.000Z,95
2022-09-11T01:51:35.000Z,94
2022-09-11T01:53:02.000Z,94
2022-09-11T01:55:08.000Z,94
2022-09-11T01:56:34.000Z,94
2022-09-11T01:58:40.000Z,95
2022-09-11T02:00:07.000Z,95
2022-09-11T02:02:13.000Z,94
2022-09-11T02:03:40.000Z,95
2022-09-11T02:05:46.000Z,94
2022-09-11T02:07:13.000Z,94
2022-09-11T02:09:19.000Z,94
2022-09-11T02:12:10.000Z,94
2022-09-11T02:13:37.000Z,94
2022-09-11T02:15:43.000Z,94
2022-09-11T02:17:09.000Z,95
2022-09-11T02:19:15.000Z,94
2022-09-11T02:20:42.000Z,94
2022-09-11T02:22:48.000Z,94
2022-09-11T02:24:14.000Z,94
2022-09-11T02:26:20.000Z,94
2022-09-11T02:27:47.000Z,94
2022-09-11T02:29:53.000Z,94
2022-09-11T02:31:20.000Z,95
2022-09-11T02:33:26.000Z,95
2022-09-11T02:34:52.000Z,94
2022-09-11T02:36:58.000Z,94
2022-09-11T02:38:25.000Z,94
2022-09-11T02:40:31.000Z,94
2022-09-11T02:41:58.000Z,94
2022-09-11T02:44:04.000Z,94
2022-09-11T02:45:30.000Z,94
2022-09-11T02:47:37.000Z,94
2022-09-11T02:50:28.000Z,94
2022-09-11T02:51:54.000Z,94
2022-09-11T02:54:00.000Z,94
2022-09-11T02:55:27.000Z,94
2022-09-11T02:57:33.000Z,94
2022-09-11T02:59:00.000Z,94
2022-09-11T03:01:06.000Z,94
2022-09-11T03:02:32.000Z,94
2022-09-11T03:04:38.000Z,94
2022-09-11T03:06:05.000Z,95
2022-09-11T03:08:11.000Z,95
2022-09-11T03:09:38.000Z,94
2022-09-11T03:11:44.000Z,94
2022-09-11T03:13:11.000Z,94
2022-09-11T03:15:17.000Z,95
2022-09-11T03:16:44.000Z,95
2022-09-11T03:18:50.000Z,95
2022-09-11T03:20:17.000Z,95
2022-09-11T03:22:23.000Z,95
2022-09-11T03:23:49.000Z,95
2022-09-11T03:25:56.000Z,95
2022-09-11T03:28:46.000Z,94
2022-09-11T03:30:13.000Z,95
2022-09-11T03:32:19.000Z,94
2022-09-11T03:33:46.000Z,94
2022-09-11T03:35:52.000Z,94
2022-09-11T03:37:18.000Z,95
2022-09-11T03:39:24.000Z,94
2022-09-11T03:40:51.000Z,94
2022-09-11T03:42:57.000Z,94
2022-09-11T03:44:23.000Z,95
2022-09-11T03:46:30.000Z,94
2022-09-11T03:47:56.000Z,95
2022-09-11T03:50:02.000Z,94
2022-09-11T03:51:29.000Z,95
2022-09-11T03:53:35.000Z,95
2022-09-11T03:55:01.000Z,95
2022-09-11T03:57:07.000Z,95
2022-09-11T03:58:34.000Z,95
2022-09-11T04:00:40.000Z,94
2022-09-11T04:02:07.000Z,95
2022-09-11T04:04:13.000Z,94
2022-09-11T04:07:04.000Z,94
2022-09-11T04:08:31.000Z,94
2022-09-11T04:10:37.000Z,94
2022-09-11T04:12:04.000Z,94
2022-09-11T04:14:10.000Z,94
2022-09-11T04:15:36.000Z,94
2022-09-11T04:17:42.000Z,94
2022-09-11T04:19:09.000Z,93
2022-09-11T04:21:15.000Z,94
2022-09-11T04:22:41.000Z,93
2022-09-11T04:24:47.000Z,94
2022-09-11T04:26:14.000Z,93
2022-09-11T04:28:20.000Z,94
2022-09-11T04:29:46.000Z,94
2022-09-11T04:31:53.000Z,94
2022-09-11T04:33:19.000Z,93
2022-09-11T04:35:25.000Z,94
2022-09-11T04:36:52.000Z,94
2022-09-11T04:38:58.000Z,94
2022-09-11T04:40:24.000Z,94
2022-09-11T04:42:31.000Z,94
2022-09-11T04:45:22.000Z,94
2022-09-11T04:46:48.000Z,94
2022-09-11T04:48:54.000Z,94
2022-09-11T04:50:21.000Z,93
2022-09-11T04:52:27.000Z,94
2022-09-11T04:53:54.000Z,93
2022-09-11T04:56:00.000Z,94
2022-09-11T04:57:26.000Z,93
2022-09-11T04:59:32.000Z,93
2022-09-11T05:00:59.000Z,93
2022-09-11T05:03:05.000Z,93
2022-09-11T05:04:31.000Z,93
2022-09-11T05:06:38.000Z,93
2022-09-11T05:08:04.000Z,93
2022-09-11T05:10:10.000Z,93
2022-09-11T05:11:37.000Z,93
2022-09-11T05:13:43.000Z,94
2022-09-11T05:15:10.000Z,94
2022-09-11T05:17:16.000Z,93
2022-09-11T05:18:42.000Z,93
2022-09-11T05:20:48.000Z,93
2022-09-11T05:23:40.000Z,92
2022-09-11T05:25:06.000Z,92
2022-09-11T05:27:12.000Z,93
2022-09-11T05:28:39.000Z,93
2022-09-11T05:30:45.000Z,92
2022-09-11T05:32:11.000Z,93
2022-09-11T05:34:17.000Z,92
2022-09-11T05:35:44.000Z,92
2022-09-11T05:37:50.000Z,92
2022-09-11T05:39:17.000Z,91
2022-09-11T05:41:23.000Z,92
2022-09-11T05:42:49.000Z,91
2022-09-11T05:44:55.000Z,92
2022-09-11T05:46:22.000Z,92
2022-09-11T05:48:28.000Z,91
2022-09-11T05:49:54.000Z,92
2022-09-11T05:52:01.000Z,91
2022-09-11T05:53:27.000Z,93
2022-09-11T05:55:33.000Z,93
2022-09-11T05:57:00.000Z,93
2022-09-11T05:59:11.000Z,92
2022-09-11T06:02:02.000Z,93
2022-09-11T06:03:29.000Z,92
2022-09-11T06:05:35.000Z,93
2022-09-11T06:07:02.000Z,92
2022-09-11T06:09:08.000Z,92
2022-09-11T06:10:34.000Z,92
2022-09-11T06:12:40.000Z,93
2022-09-11T06:14:07.000Z,93
2022-09-11T06:16:13.000Z,93
2022-09-11T06:17:44.000Z,92
2022-09-11T06:19:50.000Z,92
2022-09-11T06:21:17.000Z,92
2022-09-11T06:23:23.000Z,93
2022-09-11T06:24:49.000Z,93
2022-09-11T06:26:56.000Z,93
2022-09-11T06:28:22.000Z,93
2022-09-11T06:30:28.000Z,93
2022-09-11T06:31:55.000Z,93
2022-09-11T06:34:01.000Z,93
2022-09-11T06:35:27.000Z,93
2022-09-11T06:37:34.000Z,93
2022-09-11T06:40:25.000Z,92
2022-09-11T06:41:51.000Z,92
2022-09-11T06:43:57.000Z,92
2022-09-11T06:45:24.000Z,93
2022-09-11T06:47:30.000Z,93
2022-09-11T06:48:57.000Z,93
2022-09-11T06:51:03.000Z,92
2022-09-11T06:52:29.000Z,92
2022-09-11T06:54:35.000Z,92
2022-09-11T06:56:02.000Z,92
2022-09-11T06:58:08.000Z,92
2022-09-11T06:59:34.000Z,92
2022-09-11T07:01:40.000Z,91
2022-09-11T07:03:07.000Z,91
2022-09-11T07:05:13.000Z,91
2022-09-11T07:06:40.000Z,91
2022-09-11T07:08:46.000Z,91
2022-09-11T07:10:12.000Z,93
2022-09-11T07:12:18.000Z,91
2022-09-11T07:13:45.000Z,91
2022-09-11T07:15:51.000Z,94
2022-09-11T07:18:42.000Z,92
2022-09-11T07:20:09.000Z,93
2022-09-11T07:22:15.000Z,93
2022-09-11T07:23:41.000Z,92
2022-09-11T07:25:48.000Z,92
2022-09-11T07:27:14.000Z,92
2022-09-11T07:29:21.000Z,92
2022-09-11T07:30:47.000Z,92
2022-09-11T07:32:53.000Z,92
2022-09-11T07:34:20.000Z,92
2022-09-11T07:36:26.000Z,92
2022-09-11T07:37:52.000Z,91
2022-09-11T07:39:59.000Z,92
2022-09-11T07:41:25.000Z,93
2022-09-11T07:43:31.000Z,93
2022-09-11T07:44:58.000Z,92
2022-09-11T07:47:04.000Z,92
2022-09-11T07:48:31.000Z,91
2022-09-11T07:50:37.000Z,91
2022-09-11T07:52:03.000Z,92
2022-09-11T07:54:09.000Z,91
2022-09-11T07:57:01.000Z,90
2022-09-11T07:58:27.000Z,89
2022-09-11T08:00:34.000Z,90
2022-09-11T08:02:03.000Z,89
2022-09-11T08:04:09.000Z,89
2022-09-11T08:05:36.000Z,89
2022-09-11T08:07:42.000Z,91
2022-09-11T08:09:08.000Z,89
2022-09-11T08:11:14.000Z,88
2022-09-11T08:12:41.000Z,88
2022-09-11T08:14:47.000Z,88
2022-09-11T08:16:14.000Z,89
2022-09-11T08:18:20.000Z,88
2022-09-11T08:19:46.000Z,87
2022-09-11T08:21:53.000Z,86
2022-09-11T08:23:19.000Z,85
2022-09-11T08:25:25.000Z,86
2022-09-11T08:26:52.000Z,87
2022-09-11T08:28:58.000Z,88
2022-09-11T08:30:24.000Z,87
2022-09-11T08:32:30.000Z,86
2022-09-11T08:35:22.000Z,85
2022-09-11T08:36:48.000Z,85
2022-09-11T08:38:54.000Z,84
2022-09-11T08:40:21.000Z,84
2022-09-11T08:42:27.000Z,84
2022-09-11T08:43:53.000Z,84
2022-09-11T08:45:59.000Z,84
2022-09-11T08:47:26.000Z,84
2022-09-11T08:49:32.000Z,82
2022-09-11T08:50:59.000Z,83
2022-09-11T08:53:05.000Z,84
2022-09-11T08:54:37.000Z,84
2022-09-11T08:56:43.000Z,83
2022-09-11T08:58:09.000Z,82
2022-09-11T09:00:15.000Z,80
2022-09-11T09:01:42.000Z,82
2022-09-11T09:03:48.000Z,80
2022-09-11T09:05:15.000Z,81
2022-09-11T09:07:21.000Z,81
2022-09-11T09:08:47.000Z,82
2022-09-11T09:10:53.000Z,81
2022-09-11T09:13:44.000Z,81
2022-09-11T09:15:11.000Z,80
2022-09-11T09:17:17.000Z,80
2022-09-11T09:18:44.000Z,81
2022-09-11T09:20:50.000Z,81
2022-09-11T09:22:16.000Z,82
2022-09-11T09:24:22.000Z,82
2022-09-11T09:25:49.000Z,81
2022-09-11T09:27:55.000Z,82
2022-09-11T09:29:22.000Z,81
2022-09-11T09:31:28.000Z,80
2022-09-11T09:32:54.000Z,78
2022-09-11T09:35:01.000Z,78
2022-09-11T09:36:27.000Z,79
2022-09-11T09:38:33.000Z,77
2022-09-11T09:40:00.000Z,75
2022-09-11T09:42:06.000Z,77
2022-09-11T09:43:33.000Z,76
2022-09-11T09:45:39.000Z,76
2022-09-11T09:47:05.000Z,77
2022-09-11T09:49:12.000Z,76
2022-09-11T09:52:03.000Z,75
2022-09-11T09:53:30.000Z,75
2022-09-11T09:55:37.000Z,76
2022-09-11T09:57:03.000Z,75
2022-09-11T09:59:09.000Z,75
2022-09-11T10:00:36.000Z,75
2022-09-11T10:02:42.000Z,76
2022-09-11T10:04:08.000Z,76
2022-09-11T10:06:14.000Z,77
2022-09-11T10:07:41.000Z,77
2022-09-11T10:09:47.000Z,76
2022-09-11T10:11:13.000Z,75
2022-09-11T10:13:20.000Z,73
2022-09-11T10:14:46.000Z,74
2022-09-11T10:16:58.000Z,74
2022-09-11T10:18:24.000Z,75
2022-09-11T10:20:30.000Z,76
2022-09-11T10:21:57.000Z,76
2022-09-11T10:24:03.000Z,76
2022-09-11T10:25:30.000Z,77
2022-09-11T10:27:36.000Z,77
2022-09-11T10:30:27.000Z,77
2022-09-11T10:31:53.000Z,77
2022-09-11T10:33:59.000Z,78
2022-09-11T10:35:26.000Z,77
2022-09-11T10:37:32.000Z,77
2022-09-11T10:38:58.000Z,76
2022-09-11T10:41:04.000Z,77
2022-09-11T10:42:31.000Z,78
2022-09-11T10:44:37.000Z,77
2022-09-11T10:46:04.000Z,74
2022-09-11T10:48:10.000Z,73
2022-09-11T10:49:36.000Z,72
2022-09-11T10:51:42.000Z,72
2022-09-11T10:53:13.000Z,73
2022-09-11T10:55:19.000Z,73
2022-09-11T10:56:46.000Z,73
2022-09-11T10:58:52.000Z,72
2022-09-11T11:00:21.000Z,72
2022-09-11T11:02:27.000Z,72
2022-09-11T11:03:54.000Z,71
2022-09-11T11:06:00.000Z,72
2022-09-11T11:08:51.000Z,70
2022-09-11T11:10:17.000Z,70
2022-09-11T11:12:23.000Z,69
2022-09-11T11:13:50.000Z,69
2022-09-11T11:15:56.000Z,71
2022-09-11T11:17:23.000Z,68
2022-09-11T11:19:29.000Z,67
2022-09-11T11:20:55.000Z,67
2022-09-11T11:23:01.000Z,69
2022-09-11T11:24:28.000Z,68
2022-09-11T11:26:34.000Z,67
2022-09-11T11:28:00.000Z,67
2022-09-11T11:30:06.000Z,68
2022-09-11T11:31:33.000Z,68
2022-09-11T11:33:39.000Z,67
2022-09-11T11:35:06.000Z,67
2022-09-11T11:37:12.000Z,67
2022-09-11T11:38:38.000Z,68
2022-09-11T11:40:44.000Z,68
2022-09-11T11:42:11.000Z,65
2022-09-11T11:44:17.000Z,66
2022-09-11T11:47:08.000Z,67
2022-09-11T11:48:35.000Z,63
2022-09-11T11:50:41.000Z,62
2022-09-11T11:52:07.000Z,64
2022-09-11T11:54:13.000Z,63
2022-09-11T11:55:40.000Z,62
2022-09-11T11:57:46.000Z,64
2022-09-11T11:59:12.000Z,63
2022-09-11T12:01:19.000Z,64
2022-09-11T12:02:45.000Z,65
2022-09-11T12:04:51.000Z,65
2022-09-11T12:06:18.000Z,64
2022-09-11T12:08:24.000Z,64
2022-09-11T12:09:50.000Z,64
2022-09-11T12:11:56.000Z,65
2022-09-11T12:13:23.000Z,64
2022-09-11T12:15:29.000Z,64
2022-09-11T12:16:56.000Z,64
2022-09-11T12:19:02.000Z,64
2022-09-11T12:20:28.000Z,62
2022-09-11T12:22:34.000Z,61
2022-09-11T12:25:26.000Z,64
2022-09-11T12:26:52.000Z,63
2022-09-11T12:28:58.000Z,63
2022-09-11T12:30:25.000Z,64
2022-09-11T12:32:31.000Z,64
2022-09-11T12:33:57.000Z,65
2022-09-11T12:36:04.000Z,65
2022-09-11T12:37:30.000Z,64
2022-09-11T12:39:36.000Z,66
2022-09-11T12:41:03.000Z,66
2022-09-11T12:43:09.000Z,63
2022-09-11T12:44:35.000Z,63
2022-09-11T12:46:42.000Z,65
2022-09-11T12:48:08.000Z,63
2022-09-11T12:50:14.000Z,65
2022-09-11T12:51:41.000Z,64
2022-09-11T12:53:47.000Z,65
2022-09-11T12:55:13.000Z,65
2022-09-11T12:57:19.000Z,65
2022-09-11T12:58:46.000Z,66
2022-09-11T13:00:52.000Z,66
2022-09-11T13:03:44.000Z,66
2022-09-11T13:05:10.000Z,68
2022-09-11T13:07:16.000Z,67
2022-09-11T13:08:43.000Z,68
2022-09-11T13:10:49.000Z,66
2022-09-11T13:12:16.000Z,68
2022-09-11T13:14:22.000Z,66
2022-09-11T13:15:48.000Z,67
2022-09-11T13:17:54.000Z,67
2022-09-11T13:19:21.000Z,66
2022-09-11T13:21:27.000Z,65
2022-09-11T13:22:54.000Z,66
2022-09-11T13:25:04.000Z,67
2022-09-11T13:26:31.000Z,66
2022-09-11T13:28:37.000Z,66
2022-09-11T13:30:04.000Z,67
2022-09-11T13:32:10.000Z,67
2022-09-11T13:33:36.000Z,66
2022-09-11T13:35:42.000Z,66
2022-09-11T13:37:09.000Z,66
2022-09-11T13:39:15.000Z,66
2022-09-11T13:42:06.000Z,67
2022-09-11T13:43:33.000Z,67
2022-09-11T13:45:39.000Z,67
2022-09-11T13:47:05.000Z,67
2022-09-11T13:49:12.000Z,67
2022-09-11T13:50:38.000Z,66
2022-09-11T13:52:44.000Z,67
2022-09-11T13:54:11.000Z,67
2022-09-11T13:56:17.000Z,67
2022-09-11T13:57:43.000Z,66
2022-09-11T13:59:49.000Z,68
2022-09-11T14:01:16.000Z,66
2022-09-11T14:03:22.000Z,66
2022-09-11T14:04:48.000Z,66
2022-09-11T14:06:54.000Z,66
2022-09-11T14:08:21.000Z,66
2022-09-11T14:10:30.000Z,66
2022-09-11T14:11:57.000Z,65
2022-09-11T14:14:03.000Z,64
2022-09-11T14:15:30.000Z,66
2022-09-11T14:17:36.000Z,64
2022-09-11T14:20:27.000Z,65
2022-09-11T14:21:54.000Z,66
2022-09-11T14:24:00.000Z,65
2022-09-11T14:25:26.000Z,65
2022-09-11T14:27:32.000Z,65
2022-09-11T14:28:59.000Z,65
2022-09-11T14:31:06.000Z,64
2022-09-11T14:32:33.000Z,65
2022-09-11T14:34:39.000Z,65
2022-09-11T14:36:05.000Z,66
2022-09-11T14:38:14.000Z,66
2022-09-11T14:39:40.000Z,64
2022-09-11T14:41:46.000Z,65
2022-09-11T14:43:13.000Z,64
2022-09-11T14:45:19.000Z,65
2022-09-11T14:46:45.000Z,64
2022-09-11T14:48:52.000Z,63
2022-09-11T14:50:18.000Z,62
2022-09-11T14:52:24.000Z,62
2022-09-11T14:53:51.000Z,62
2022-09-11T14:55:57.000Z,63
2022-09-11T14:58:48.000Z,61
2022-09-11T15:00:15.000Z,61
2022-09-11T15:02:21.000Z,59
2022-09-11T15:03:47.000Z,60
2022-09-11T15:05:54.000Z,60
2022-09-11T15:07:20.000Z,61
2022-09-11T15:09:26.000Z,60
2022-09-11T15:10:53.000Z,61
2022-09-11T15:12:59.000Z,59
2022-09-11T15:14:25.000Z,60
2022-09-11T15:17:01.000Z,58
2022-09-11T15:18:27.000Z,59
2022-09-11T15:20:34.000Z,59
2022-09-11T15:22:00.000Z,60
2022-09-11T15:24:06.000Z,60
2022-09-11T15:25:33.000Z,60
2022-09-11T15:27:39.000Z,59
2022-09-11T15:29:05.000Z,59
2022-09-11T15:31:12.000Z,60
2022-09-11T15:32:38.000Z,60
2022-09-11T15:34:44.000Z,60
2022-09-11T15:37:36.000Z,59
2022-09-11T15:39:02.000Z,58
2022-09-11T15:41:08.000Z,60
2022-09-11T15:42:35.000Z,58
2022-09-11T15:44:45.000Z,59
2022-09-11T15:46:12.000Z,58
2022-09-11T15:48:18.000Z,58
2022-09-11T15:49:44.000Z,59
2022-09-11T15:51:50.000Z,59
2022-09-11T15:53:17.000Z,60
2022-09-11T15:55:23.000Z,59
2022-09-11T15:56:50.000Z,59
2022-09-11T15:58:56.000Z,58
2022-09-11T16:00:27.000Z,59
2022-09-11T16:02:33.000Z,59
2022-09-11T16:04:00.000Z,60
2022-09-11T16:06:06.000Z,61
2022-09-11T16:07:33.000Z,62
2022-09-11T16:09:39.000Z,62
2022-09-11T16:11:05.000Z,63
2022-09-11T16:13:12.000Z,63
2022-09-11T16:16:03.000Z,64
2022-09-11T16:17:30.000Z,66
2022-09-11T16:19:36.000Z,66
2022-09-11T16:21:02.000Z,66
2022-09-11T16:23:08.000Z,68
2022-09-11T16:24:35.000Z,69
2022-09-11T16:26:41.000Z,68
2022-09-11T16:28:07.000Z,67
2022-09-11T16:30:14.000Z,68
2022-09-11T16:32:09.000Z,67
2022-09-11T16:34:15.000Z,68
2022-09-11T16:35:42.000Z,67
2022-09-11T16:37:48.000Z,66
2022-09-11T16:39:14.000Z,67
2022-09-11T16:41:20.000Z,67
2022-09-11T16:42:47.000Z,68
2022-09-11T16:44:53.000Z,68
2022-09-11T16:46:20.000Z,68
2022-09-11T16:48:26.000Z,67
2022-09-11T16:49:52.000Z,67
2022-09-11T16:52:13.000Z,65
2022-09-11T16:55:04.000Z,65
2022-09-11T16:56:31.000Z,66
2022-09-11T16:58:37.000Z,65
2022-09-11T17:00:03.000Z,66
2022-09-11T17:02:10.000Z,67
2022-09-11T17:03:36.000Z,67
2022-09-11T17:05:47.000Z,67
2022-09-11T17:07:13.000Z,69
2022-09-11T17:09:20.000Z,70
2022-09-11T17:10:46.000Z,71
2022-09-11T17:12:52.000Z,71
2022-09-11T17:14:19.000Z,71
2022-09-11T17:16:25.000Z,71
2022-09-11T17:17:51.000Z,73
2022-09-11T17:19:58.000Z,73
2022-09-11T17:21:24.000Z,73
2022-09-11T17:23:30.000Z,74
2022-09-11T17:24:57.000Z,74
2022-09-11T17:27:03.000Z,75
2022-09-11T17:28:30.000Z,74
2022-09-11T17:30:36.000Z,75
2022-09-11T17:33:27.000Z,75
2022-09-11T17:34:54.000Z,75
2022-09-11T17:37:00.000Z,75
2022-09-11T17:38:26.000Z,75
2022-09-11T17:40:32.000Z,75
2022-09-11T17:41:59.000Z,76
2022-09-11T17:44:05.000Z,76
2022-09-11T17:45:31.000Z,76
2022-09-11T17:47:38.000Z,76
2022-09-11T17:49:04.000Z,77
2022-09-11T17:51:10.000Z,76
2022-09-11T17:52:37.000Z,76
2022-09-11T17:54:43.000Z,77
2022-09-11T17:56:09.000Z,78
2022-09-11T17:58:15.000Z,79
2022-09-11T17:59:42.000Z,79
2022-09-11T18:01:48.000Z,79
2022-09-11T18:03:14.000Z,80
2022-09-11T18:07:18.000Z,82
2022-09-11T18:09:24.000Z,82
2022-09-11T18:12:15.000Z,82
2022-09-11T18:13:42.000Z,82
2022-09-11T18:15:48.000Z,83
2022-09-11T18:17:15.000Z,83
2022-09-11T18:19:21.000Z,82
2022-09-11T18:20:47.000Z,83
2022-09-11T18:22:54.000Z,83
2022-09-11T18:24:20.000Z,83
2022-09-11T18:26:26.000Z,84
2022-09-11T18:27:53.000Z,83
2022-09-11T18:29:59.000Z,84
2022-09-11T18:31:26.000Z,84
2022-09-11T18:33:32.000Z,84
2022-09-11T18:34:58.000Z,84
2022-09-11T18:37:06.000Z,84
2022-09-11T18:38:32.000Z,84
2022-09-11T18:40:39.000Z,84
2022-09-11T18:42:05.000Z,85
2022-09-11T18:44:11.000Z,84
2022-09-11T18:45:43.000Z,84
2022-09-11T18:47:49.000Z,85
2022-09-11T18:50:40.000Z,85
2022-09-11T18:52:07.000Z,85
2022-09-11T18:54:13.000Z,86
2022-09-11T18:55:39.000Z,86
2022-09-11T18:57:46.000Z,86
2022-09-11T18:59:15.000Z,86
2022-09-11T19:01:21.000Z,86
2022-09-11T19:02:48.000Z,86
2022-09-11T19:04:54.000Z,86
2022-09-11T19:06:20.000Z,86
2022-09-11T19:08:26.000Z,86
2022-09-11T19:09:53.000Z,86
2022-09-11T19:11:59.000Z,86
2022-09-11T19:13:26.000Z,87
2022-09-11T19:15:32.000Z,86
2022-09-11T19:16:59.000Z,87
2022-09-11T19:19:06.000Z,87
2022-09-11T19:20:32.000Z,87
2022-09-11T19:22:38.000Z,87
2022-09-11T19:24:05.000Z,87
2022-09-11T19:26:11.000Z,87
2022-09-11T19:29:02.000Z,86
2022-09-11T19:30:29.000Z,87
2022-09-11T19:32:35.000Z,87
2022-09-11T19:34:01.000Z,87
2022-09-11T19:36:07.000Z,87
2022-09-11T19:37:34.000Z,88
2022-09-11T19:39:40.000Z,88
2022-09-11T19:41:07.000Z,88
2022-09-11T19:43:13.000Z,88
2022-09-11T19:44:39.000Z,88
2022-09-11T19:46:45.000Z,88
2022-09-11T19:48:12.000Z,88
2022-09-11T19:50:18.000Z,88
2022-09-11T19:51:45.000Z,89
2022-09-11T19:53:51.000Z,89
2022-09-11T19:55:17.000Z,88
2022-09-11T19:57:24.000Z,89
2022-09-11T19:58:50.000Z,89
2022-09-11T20:00:56.000Z,89
2022-09-11T20:02:23.000Z,89
2022-09-11T20:04:29.000Z,89
2022-09-11T20:07:20.000Z,88
2022-09-11T20:08:47.000Z,89
2022-09-11T20:10:53.000Z,89
2022-09-11T20:12:19.000Z,88
2022-09-11T20:14:25.000Z,88
2022-09-11T20:15:52.000Z,88
2022-09-11T20:17:58.000Z,88
2022-09-11T20:19:26.000Z,89
2022-09-11T20:21:32.000Z,89
2022-09-11T20:22:59.000Z,89
2022-09-11T20:25:06.000Z,88
2022-09-11T20:26:32.000Z,88
2022-09-11T20:28:38.000Z,89
2022-09-11T20:30:05.000Z,89
2022-09-11T20:32:11.000Z,89
2022-09-11T20:33:38.000Z,89
2022-09-11T20:35:44.000Z,89
2022-09-11T20:37:10.000Z,89
2022-09-11T20:39:16.000Z,89
2022-09-11T20:40:43.000Z,89
2022-09-11T20:42:49.000Z,89
2022-09-11T20:45:40.000Z,89
2022-09-11T20:47:06.000Z,89
2022-09-11T20:49:12.000Z,89
2022-09-11T20:50:39.000Z,90
2022-09-11T20:52:45.000Z,90
2022-09-11T20:54:11.000Z,90
2022-09-11T20:56:17.000Z,90
2022-09-11T20:57:44.000Z,90
2022-09-11T20:59:50.000Z,89
2022-09-11T21:01:17.000Z,90
2022-09-11T21:03:23.000Z,89
2022-09-11T21:04:49.000Z,90
2022-09-11T21:06:55.000Z,90
2022-09-11T21:08:22.000Z,90
2022-09-11T21:10:28.000Z,89
2022-09-11T21:11:55.000Z,89
2022-09-11T21:14:01.000Z,89
2022-09-11T21:15:27.000Z,89
2022-09-11T21:17:33.000Z,90
2022-09-11T21:19:00.000Z,89
2022-09-11T21:21:06.000Z,90
2022-09-11T21:23:57.000Z,89
2022-09-11T21:25:23.000Z,90
2022-09-11T21:27:30.000Z,89
2022-09-11T21:28:56.000Z,89
2022-09-11T21:31:02.000Z,89
2022-09-11T21:32:29.000Z,90
2022-09-11T21:34:35.000Z,89
2022-09-11T21:36:01.000Z,90
2022-09-11T21:38:08.000Z,89
2022-09-11T21:39:34.000Z,89
2022-09-11T21:41:40.000Z,89
2022-09-11T21:43:07.000Z,90
2022-09-11T21:45:13.000Z,90
2022-09-11T21:46:39.000Z,90
2022-09-11T21:48:46.000Z,90
2022-09-11T21:50:12.000Z,90
2022-09-11T21:52:18.000Z,90
2022-09-11T21:53:45.000Z,90
2022-09-11T21:55:51.000Z,89
2022-09-11T21:57:18.000Z,89
2022-09-11T21:59:24.000Z,90
2022-09-11T22:02:15.000Z,90
2022-09-11T22:03:42.000Z,91
2022-09-11T22:05:48.000Z,90
2022-09-11T22:07:14.000Z,90
2022-09-11T22:09:20.000Z,90
2022-09-11T22:10:47.000Z,90
2022-09-11T22:12:53.000Z,90
2022-09-11T22:14:20.000Z,91
2022-09-11T22:16:26.000Z,90
2022-09-11T22:17:52.000Z,90
2022-09-11T22:19:58.000Z,90
2022-09-11T22:21:25.000Z,90
2022-09-11T22:23:31.000Z,90
2022-09-11T22:24:57.000Z,91
2022-09-11T22:27:03.000Z,91
2022-09-11T22:28:30.000Z,90
2022-09-11T22:30:36.000Z,90
2022-09-11T22:32:02.000Z,90
2022-09-11T22:34:08.000Z,90
2022-09-11T22:35:35.000Z,90
2022-09-11T22:37:41.000Z,90
2022-09-11T22:40:32.000Z,90
2022-09-11T22:41:59.000Z,90
2022-09-11T22:44:05.000Z,90
2022-09-11T22:45:31.000Z,92
2022-09-11T22:47:38.000Z,91
2022-09-11T22:49:04.000Z,91
2022-09-11T22:51:10.000Z,91
2022-09-11T22:52:37.000Z,90
2022-09-11T22:54:43.000Z,91
2022-09-11T22:56:09.000Z,91
2022-09-11T22:58:15.000Z,91
2022-09-11T22:59:42.000Z,91
2022-09-11T23:01:48.000Z,91
2022-09-11T23:03:14.000Z,91
2022-09-11T23:05:21.000Z,91
2022-09-11T23:06:47.000Z,91
2022-09-11T23:08:53.000Z,91
2022-09-11T23:10:20.000Z,91
2022-09-11T23:12:26.000Z,92
2022-09-11T23:13:52.000Z,91
2022-09-11T23:15:58.000Z,91
2022-09-11T23:18:50.000Z,92
2022-09-11T23:20:16.000Z,92
2022-09-11T23:22:22.000Z,91
2022-09-11T23:23:49.000Z,92
2022-09-11T23:26:00.000Z,91
2022-09-11T23:27:26.000Z,91
2022-09-11T23:29:32.000Z,90
2022-09-11T23:30:59.000Z,90
2022-09-11T23:33:05.000Z,90
2022-09-11T23:34:32.000Z,91
2022-09-11T23:36:38.000Z,91
2022-09-11T23:38:04.000Z,91
2022-09-11T23:40:10.000Z,91
2022-09-11T23:41:37.000Z,91
2022-09-11T23:43:43.000Z,90
2022-09-11T23:45:10.000Z,90
2022-09-11T23:47:16.000Z,90
2022-09-11T23:48:42.000Z,90
2022-09-11T23:50:49.000Z,90
2022-09-11T23:52:15.000Z,90
2022-09-11T23:54:21.000Z,90
2022-09-11T23:57:12.000Z,90
2022-09-11T23:58:39.000Z,91
